Trans Sea — 9HA2564 — position and weather

sailwx.info

Track history (hours):
 
Tides and Currents Weather Stations Pressure Air Temp Water Temp Dewpoint Dewpoint Depression Visibility Wind Speed Wind Dir Waves Ship Positions

Trans Sea

Last reported at 2014-Sep-01 12:13 UTC. Time now 2014-Sep-03 02:36 UTC.
Position N 36°38' E 014°31'.

Length 107 m; draft 6.3 m.

Type: Ship (hazmat cat B). MMSI: 248887000.

Date/timePositionNaut miles runAvg speedWind from/ knotsBaromVisibWave heightAir tempDewpointWater temp
2014-Sep-01 12:13N 36°38' E 014°31'914.3
2014-Sep-01 11:33N 36°42' E 014°20'1414.0
2014-Sep-01 10:33N 36°49' E 014°05'1413.7
2014-Sep-01 09:33N 36°55' E 013°50'13813.2
2014-Aug-31 23:05N 37°34' E 011°04'713.6
2014-Aug-31 22:33N 37°34' E 010°55'1413.8
2014-Aug-31 21:33N 37°34' E 010°38'1413.9
2014-Aug-31 20:31N 37°34' E 010°19'1414.0
2014-Aug-31 19:30N 37°34' E 010°02'1314.0
2014-Aug-31 18:33N 37°31' E 009°45'3413.8
2014-Aug-31 16:04N 37°24' E 009°03'813.5
2014-Aug-31 15:27N 37°22' E 008°53'1413.0
2014-Aug-31 14:21N 37°19' E 008°35'1113.1
2014-Aug-31 13:33N 37°18' E 008°22'1913.1
2014-Aug-31 12:06N 37°19' E 007°58'25013.5
2014-Aug-30 17:33N 36°59' E 002°45'17913.6
2014-Aug-30 04:21N 36°31' W 000°56'1013.1
2014-Aug-30 03:33N 36°29' W 001°09'1313.0
2014-Aug-30 02:33N 36°26' W 001°25'2812.9
2014-Aug-30 00:22N 36°22' W 001°60'  
2014-Aug-27 19:26N 36°41' W 001°51'3014.1
2014-Aug-27 17:18N 37°00' W 001°22'1114.2
2014-Aug-27 16:34N 37°07' W 001°13'1614.0
2014-Aug-27 15:26N 37°18' W 000°58'1314.0
2014-Aug-27 14:31N 37°26' W 000°45'1313.9
2014-Aug-27 13:33N 37°35' W 000°33'1713.7
2014-Aug-27 12:17N 37°50' W 000°21'1013.6
2014-Aug-27 11:31N 37°58' W 000°13'1313.6
2014-Aug-27 10:33N 38°09' W 000°04'1413.6
2014-Aug-27 09:33N 38°21' E 000°05'1313.5
2014-Aug-27 08:33N 38°32' E 000°14'1613.7
2014-Aug-27 07:24N 38°46' E 000°25'1213.4
2014-Aug-27 06:30N 38°57' E 000°30'1314.0
2014-Aug-27 05:33N 39°10' E 000°35'3414.4
2014-Aug-27 03:13N 39°41' E 000°49'1214.3
2014-Aug-27 02:24N 39°53' E 000°54'1214.2
2014-Aug-27 01:33N 40°04' E 000°57'1414.0
2014-Aug-27 00:33N 40°18' E 000°59'1413.7
2014-Aug-26 23:33N 40°32' E 001°03'1413.5
2014-Aug-26 22:33N 40°45' E 001°07'1413.9
2014-Aug-26 21:33N 40°58' E 001°11'8 0.4
2014-Aug-26 00:33N 41°06' E 001°14'0 0.0
2014-Aug-25 23:24N 41°06' E 001°14'0 0.0
2014-Aug-25 21:18N 41°06' E 001°14'0 0.0
2014-Aug-25 19:30N 41°06' E 001°14'0 0.0
2014-Aug-25 17:24N 41°06' E 001°14'1 0.1
2014-Aug-25 08:18N 41°06' E 001°13'6 7.6
2014-Aug-25 07:31N 41°02' E 001°20'1212.5
2014-Aug-25 06:33N 40°58' E 001°35'1312.7
2014-Aug-25 05:33N 40°53' E 001°50'1312.6
2014-Aug-25 04:33N 40°50' E 002°06'1312.5
2014-Aug-25 03:33N 40°45' E 002°22'1312.6
2014-Aug-25 02:33N 40°41' E 002°37'1312.7
2014-Aug-25 01:33N 40°36' E 002°53'1313.0
2014-Aug-25 00:33N 40°32' E 003°09'2612.8
2014-Aug-24 22:30N 40°23' E 003°41'23412.2
2014-Aug-24 03:17N 38°48' E 008°19'2612.3
2014-Aug-24 01:10N 38°38' E 008°50'1212.5
2014-Aug-24 00:15N 38°34' E 009°04'812.1
2014-Aug-23 23:33N 38°31' E 009°13'1211.7
2014-Aug-23 22:33N 38°27' E 009°28'1311.6
2014-Aug-23 21:27N 38°23' E 009°43'1111.9
2014-Aug-23 20:33N 38°19' E 009°56'1412.2
2014-Aug-23 19:25N 38°14' E 010°12'21213.4
2014-Aug-23 03:33N 36°39' E 014°11'1413.8
2014-Aug-23 02:33N 36°32' E 014°26'1413.5
2014-Aug-23 01:33N 36°26' E 014°41'  
Track history (hours):
 
Tides and Currents Weather Stations Pressure Air Temp Water Temp Dewpoint Dewpoint Depression Visibility Wind Speed Wind Dir Waves Ship Positions

Trans Sea

Last reported at 2014-Sep-01 12:13 UTC. Time now 2014-Sep-03 02:36 UTC.
Position N 36°38' E 014°31'.

Length 107 m; draft 6.3 m.

Type: Ship (hazmat cat B). MMSI: 248887000.

Date/timePositionNaut miles runAvg speedWind from/ knotsBaromVisibWave heightAir tempDewpointWater temp
2014-Sep-01 12:13N 36°38' E 014°31'914.3
2014-Sep-01 11:33N 36°42' E 014°20'1414.0
2014-Sep-01 10:33N 36°49' E 014°05'1413.7
2014-Sep-01 09:33N 36°55' E 013°50'13813.2
2014-Aug-31 23:05N 37°34' E 011°04'713.6
2014-Aug-31 22:33N 37°34' E 010°55'1413.8
2014-Aug-31 21:33N 37°34' E 010°38'1413.9
2014-Aug-31 20:31N 37°34' E 010°19'1414.0
2014-Aug-31 19:30N 37°34' E 010°02'1314.0
2014-Aug-31 18:33N 37°31' E 009°45'3413.8
2014-Aug-31 16:04N 37°24' E 009°03'813.5
2014-Aug-31 15:27N 37°22' E 008°53'1413.0
2014-Aug-31 14:21N 37°19' E 008°35'1113.1
2014-Aug-31 13:33N 37°18' E 008°22'1913.1
2014-Aug-31 12:06N 37°19' E 007°58'25013.5
2014-Aug-30 17:33N 36°59' E 002°45'17913.6
2014-Aug-30 04:21N 36°31' W 000°56'1013.1
2014-Aug-30 03:33N 36°29' W 001°09'1313.0
2014-Aug-30 02:33N 36°26' W 001°25'2812.9
2014-Aug-30 00:22N 36°22' W 001°60'  
2014-Aug-27 19:26N 36°41' W 001°51'3014.1
2014-Aug-27 17:18N 37°00' W 001°22'1114.2
2014-Aug-27 16:34N 37°07' W 001°13'1614.0
2014-Aug-27 15:26N 37°18' W 000°58'1314.0
2014-Aug-27 14:31N 37°26' W 000°45'1313.9
2014-Aug-27 13:33N 37°35' W 000°33'1713.7
2014-Aug-27 12:17N 37°50' W 000°21'1013.6
2014-Aug-27 11:31N 37°58' W 000°13'1313.6
2014-Aug-27 10:33N 38°09' W 000°04'1413.6
2014-Aug-27 09:33N 38°21' E 000°05'1313.5
2014-Aug-27 08:33N 38°32' E 000°14'1613.7
2014-Aug-27 07:24N 38°46' E 000°25'1213.4
2014-Aug-27 06:30N 38°57' E 000°30'1314.0
2014-Aug-27 05:33N 39°10' E 000°35'3414.4
2014-Aug-27 03:13N 39°41' E 000°49'1214.3
2014-Aug-27 02:24N 39°53' E 000°54'1214.2
2014-Aug-27 01:33N 40°04' E 000°57'1414.0
2014-Aug-27 00:33N 40°18' E 000°59'1413.7
2014-Aug-26 23:33N 40°32' E 001°03'1413.5
2014-Aug-26 22:33N 40°45' E 001°07'1413.9
2014-Aug-26 21:33N 40°58' E 001°11'8 0.4
2014-Aug-26 00:33N 41°06' E 001°14'0 0.0
2014-Aug-25 23:24N 41°06' E 001°14'0 0.0
2014-Aug-25 21:18N 41°06' E 001°14'0 0.0
2014-Aug-25 19:30N 41°06' E 001°14'0 0.0
2014-Aug-25 17:24N 41°06' E 001°14'1 0.1
2014-Aug-25 08:18N 41°06' E 001°13'6 7.6
2014-Aug-25 07:31N 41°02' E 001°20'1212.5
2014-Aug-25 06:33N 40°58' E 001°35'1312.7
2014-Aug-25 05:33N 40°53' E 001°50'1312.6
2014-Aug-25 04:33N 40°50' E 002°06'1312.5
2014-Aug-25 03:33N 40°45' E 002°22'1312.6
2014-Aug-25 02:33N 40°41' E 002°37'1312.7
2014-Aug-25 01:33N 40°36' E 002°53'1313.0
2014-Aug-25 00:33N 40°32' E 003°09'2612.8
2014-Aug-24 22:30N 40°23' E 003°41'23412.2
2014-Aug-24 03:17N 38°48' E 008°19'2612.3
2014-Aug-24 01:10N 38°38' E 008°50'1212.5
2014-Aug-24 00:15N 38°34' E 009°04'812.1
2014-Aug-23 23:33N 38°31' E 009°13'1211.7
2014-Aug-23 22:33N 38°27' E 009°28'1311.6
2014-Aug-23 21:27N 38°23' E 009°43'1111.9
2014-Aug-23 20:33N 38°19' E 009°56'1412.2
2014-Aug-23 19:25N 38°14' E 010°12'21213.4
2014-Aug-23 03:33N 36°39' E 014°11'1413.8
2014-Aug-23 02:33N 36°32' E 014°26'1413.5
2014-Aug-23 01:33N 36°26' E 014°41'  

Dump ship's entire track history